sensor_id;sensor_type;location;lat;lon;timestamp;pressure;altitude;pressure_sealevel;temperature;humidity
13767;BME280;47980;48.794;9.176;2023-01-09T00:00:13;96547.44;;;9.06;100.00
13767;BME280;47980;48.794;9.176;2023-01-09T00:02:46;96542.75;;;8.96;100.00
13767;BME280;47980;48.794;9.176;2023-01-09T00:05:19;96564.44;;;9.05;100.00
13767;BME280;47980;48.794;9.176;2023-01-09T00:07:50;96556.44;;;9.02;100.00
13767;BME280;47980;48.794;9.176;2023-01-09T00:10:22;96548.63;;;9.09;100.00
13767;BME280;47980;48.794;9.176;2023-01-09T00:12:54;96559.09;;;9.25;100.00
13767;BME280;47980;48.794;9.176;2023-01-09T00:15:25;96546.09;;;9.16;100.00
13767;BME280;47980;48.794;9.176;2023-01-09T00:17:58;96548.28;;;9.10;100.00
13767;BME280;47980;48.794;9.176;2023-01-09T00:20:30;96552.75;;;9.06;100.00
13767;BME280;47980;48.794;9.176;2023-01-09T00:23:02;96542.84;;;9.03;100.00
13767;BME280;47980;48.794;9.176;2023-01-09T00:25:33;96538.31;;;9.04;100.00
13767;BME280;47980;48.794;9.176;2023-01-09T00:28:06;96536.59;;;9.11;100.00
13767;BME280;47980;48.794;9.176;2023-01-09T00:30:37;96543.69;;;9.30;100.00
13767;BME280;47980;48.794;9.176;2023-01-09T00:33:10;96534.09;;;9.22;100.00
13767;BME280;47980;48.794;9.176;2023-01-09T00:35:43;96546.63;;;9.25;100.00
13767;BME280;47980;48.794;9.176;2023-01-09T00:38:14;96551.03;;;9.18;100.00
13767;BME280;47980;48.794;9.176;2023-01-09T00:40:46;96542.88;;;9.26;100.00
13767;BME280;47980;48.794;9.176;2023-01-09T00:43:18;96543.22;;;9.25;100.00
13767;BME280;47980;48.794;9.176;2023-01-09T00:45:50;96548.16;;;9.26;100.00
13767;BME280;47980;48.794;9.176;2023-01-09T00:48:24;96547.69;;;9.21;100.00
13767;BME280;47980;48.794;9.176;2023-01-09T00:50:59;96548.50;;;9.25;100.00
13767;BME280;47980;48.794;9.176;2023-01-09T00:53:31;96545.84;;;9.25;100.00
13767;BME280;47980;48.794;9.176;2023-01-09T00:56:06;96535.97;;;9.22;100.00
13767;BME280;47980;48.794;9.176;2023-01-09T00:58:39;96545.31;;;9.38;100.00
13767;BME280;47980;48.794;9.176;2023-01-09T01:01:10;96545.53;;;9.26;100.00
13767;BME280;47980;48.794;9.176;2023-01-09T01:03:43;96550.75;;;9.23;100.00
13767;BME280;47980;48.794;9.176;2023-01-09T01:06:15;96549.81;;;9.11;100.00
13767;BME280;47980;48.794;9.176;2023-01-09T01:09:04;96541.97;;;9.19;100.00
13767;BME280;47980;48.794;9.176;2023-01-09T01:11:36;96538.63;;;9.22;100.00
13767;BME280;47980;48.794;9.176;2023-01-09T01:14:08;96540.88;;;9.20;100.00
13767;BME280;47980;48.794;9.176;2023-01-09T01:16:39;96529.47;;;9.15;100.00
13767;BME280;47980;48.794;9.176;2023-01-09T01:19:12;96533.69;;;9.20;100.00
13767;BME280;47980;48.794;9.176;2023-01-09T01:21:44;96541.03;;;9.30;100.00
13767;BME280;47980;48.794;9.176;2023-01-09T01:24:15;96531.50;;;9.26;100.00
13767;BME280;47980;48.794;9.176;2023-01-09T01:26:48;96529.38;;;9.35;100.00
13767;BME280;47980;48.794;9.176;2023-01-09T01:29:20;96526.09;;;9.42;100.00
13767;BME280;47980;48.794;9.176;2023-01-09T01:31:52;96532.78;;;9.35;100.00
13767;BME280;47980;48.794;9.176;2023-01-09T01:34:27;96529.69;;;9.30;100.00
13767;BME280;47980;48.794;9.176;2023-01-09T01:36:58;96521.53;;;9.15;100.00
13767;BME280;47980;48.794;9.176;2023-01-09T01:39:30;96512.47;;;9.16;100.00
13767;BME280;47980;48.794;9.176;2023-01-09T01:42:02;96523.63;;;9.29;100.00
13767;BME280;47980;48.794;9.176;2023-01-09T01:44:57;96519.16;;;9.33;100.00
13767;BME280;47980;48.794;9.176;2023-01-09T01:47:35;96515.63;;;9.26;100.00
13767;BME280;47980;48.794;9.176;2023-01-09T01:50:15;96517.41;;;9.18;100.00
13767;BME280;47980;48.794;9.176;2023-01-09T01:52:52;96521.41;;;9.08;100.00
13767;BME280;47980;48.794;9.176;2023-01-09T01:55:25;96535.41;;;9.09;100.00
13767;BME280;47980;48.794;9.176;2023-01-09T01:58:00;96532.13;;;9.15;100.00
13767;BME280;47980;48.794;9.176;2023-01-09T02:00:35;96537.69;;;9.10;100.00
13767;BME280;47980;48.794;9.176;2023-01-09T02:03:08;96530.44;;;9.07;100.00
13767;BME280;47980;48.794;9.176;2023-01-09T02:05:42;96541.47;;;9.09;100.00
13767;BME280;47980;48.794;9.176;2023-01-09T02:08:14;96528.34;;;9.16;100.00
13767;BME280;47980;48.794;9.176;2023-01-09T02:10:46;96533.75;;;9.24;100.00
13767;BME280;47980;48.794;9.176;2023-01-09T02:13:18;96531.06;;;9.20;100.00
13767;BME280;47980;48.794;9.176;2023-01-09T02:16:00;96525.56;;;9.32;100.00
13767;BME280;47980;48.794;9.176;2023-01-09T02:18:47;96516.69;;;9.21;100.00
13767;BME280;47980;48.794;9.176;2023-01-09T02:21:33;96525.34;;;9.18;100.00
13767;BME280;47980;48.794;9.176;2023-01-09T02:24:30;96515.81;;;9.13;100.00
13767;BME280;47980;48.794;9.176;2023-01-09T02:27:25;96514.41;;;9.20;100.00
13767;BME280;47980;48.794;9.176;2023-01-09T02:33:34;96516.13;;;9.08;100.00
13767;BME280;47980;48.794;9.176;2023-01-09T02:36:18;96518.66;;;9.01;100.00
13767;BME280;47980;48.794;9.176;2023-01-09T02:39:05;96528.22;;;9.09;100.00
13767;BME280;47980;48.794;9.176;2023-01-09T02:41:45;96524.06;;;9.08;100.00
13767;BME280;47980;48.794;9.176;2023-01-09T02:44:23;96523.38;;;9.11;100.00
13767;BME280;47980;48.794;9.176;2023-01-09T02:47:01;96521.06;;;9.10;100.00
13767;BME280;47980;48.794;9.176;2023-01-09T02:49:35;96521.13;;;9.13;100.00
13767;BME280;47980;48.794;9.176;2023-01-09T02:52:21;96533.59;;;9.13;100.00
13767;BME280;47980;48.794;9.176;2023-01-09T02:55:01;96525.91;;;9.04;100.00
13767;BME280;47980;48.794;9.176;2023-01-09T02:57:44;96520.44;;;8.94;100.00
13767;BME280;47980;48.794;9.176;2023-01-09T03:00:29;96534.47;;;9.21;100.00
13767;BME280;47980;48.794;9.176;2023-01-09T03:03:10;96548.84;;;9.00;100.00
13767;BME280;47980;48.794;9.176;2023-01-09T03:05:46;96542.41;;;8.98;100.00
13767;BME280;47980;48.794;9.176;2023-01-09T03:08:23;96555.97;;;8.96;100.00
13767;BME280;47980;48.794;9.176;2023-01-09T03:10:58;96569.94;;;8.97;100.00
13767;BME280;47980;48.794;9.176;2023-01-09T03:13:35;96557.84;;;8.96;100.00
13767;BME280;47980;48.794;9.176;2023-01-09T03:16:13;96562.84;;;9.01;100.00
13767;BME280;47980;48.794;9.176;2023-01-09T03:18:48;96563.63;;;9.01;100.00
13767;BME280;47980;48.794;9.176;2023-01-09T03:21:21;96539.34;;;8.96;100.00
13767;BME280;47980;48.794;9.176;2023-01-09T03:23:55;96537.19;;;9.01;100.00
13767;BME280;47980;48.794;9.176;2023-01-09T03:26:27;96550.41;;;9.01;100.00
13767;BME280;47980;48.794;9.176;2023-01-09T03:29:00;96566.91;;;8.95;100.00
13767;BME280;47980;48.794;9.176;2023-01-09T03:31:32;96572.94;;;8.95;100.00
13767;BME280;47980;48.794;9.176;2023-01-09T03:34:05;96589.13;;;8.90;100.00
13767;BME280;47980;48.794;9.176;2023-01-09T03:36:37;96593.63;;;8.89;100.00
13767;BME280;47980;48.794;9.176;2023-01-09T03:39:09;96608.66;;;8.85;100.00
13767;BME280;47980;48.794;9.176;2023-01-09T03:41:40;96616.78;;;8.96;100.00
13767;BME280;47980;48.794;9.176;2023-01-09T03:44:12;96628.00;;;8.89;100.00
13767;BME280;47980;48.794;9.176;2023-01-09T03:46:43;96637.47;;;8.90;100.00
13767;BME280;47980;48.794;9.176;2023-01-09T03:49:16;96638.63;;;8.93;100.00
13767;BME280;47980;48.794;9.176;2023-01-09T03:51:48;96648.88;;;8.95;99.48
13767;BME280;47980;48.794;9.176;2023-01-09T03:54:19;96659.53;;;8.79;100.00
13767;BME280;47980;48.794;9.176;2023-01-09T03:56:51;96669.13;;;8.87;100.00
13767;BME280;47980;48.794;9.176;2023-01-09T03:59:23;96670.19;;;8.82;99.67
13767;BME280;47980;48.794;9.176;2023-01-09T04:01:55;96690.97;;;8.84;99.64
13767;BME280;47980;48.794;9.176;2023-01-09T04:04:28;96704.19;;;8.64;100.00
13767;BME280;47980;48.794;9.176;2023-01-09T04:06:59;96712.28;;;8.72;100.00
13767;BME280;47980;48.794;9.176;2023-01-09T04:09:31;96733.19;;;8.61;100.00
13767;BME280;47980;48.794;9.176;2023-01-09T04:12:03;96732.31;;;8.57;98.13
13767;BME280;47980;48.794;9.176;2023-01-09T04:14:35;96743.25;;;8.55;97.87
13767;BME280;47980;48.794;9.176;2023-01-09T04:17:06;96754.94;;;8.54;97.75
13767;BME280;47980;48.794;9.176;2023-01-09T04:19:39;96775.56;;;8.49;98.09
13767;BME280;47980;48.794;9.176;2023-01-09T04:22:11;96776.09;;;8.54;93.76
13767;BME280;47980;48.794;9.176;2023-01-09T04:24:42;96777.03;;;8.46;90.65
13767;BME280;47980;48.794;9.176;2023-01-09T04:27:14;96776.69;;;8.32;90.02
13767;BME280;47980;48.794;9.176;2023-01-09T04:29:46;96781.28;;;8.03;90.28
13767;BME280;47980;48.794;9.176;2023-01-09T04:32:17;96792.78;;;8.11;88.52
13767;BME280;47980;48.794;9.176;2023-01-09T04:34:50;96790.38;;;8.06;87.89
13767;BME280;47980;48.794;9.176;2023-01-09T04:37:22;96804.44;;;7.94;88.14
13767;BME280;47980;48.794;9.176;2023-01-09T04:39:54;96794.91;;;8.05;87.12
13767;BME280;47980;48.794;9.176;2023-01-09T04:42:26;96799.31;;;7.85;88.93
13767;BME280;47980;48.794;9.176;2023-01-09T04:44:58;96798.78;;;7.80;89.65
13767;BME280;47980;48.794;9.176;2023-01-09T04:47:29;96801.00;;;7.78;88.98
13767;BME280;47980;48.794;9.176;2023-01-09T04:50:03;96805.84;;;7.76;88.99
13767;BME280;47980;48.794;9.176;2023-01-09T04:52:35;96811.38;;;7.70;89.81
13767;BME280;47980;48.794;9.176;2023-01-09T04:55:07;96817.94;;;7.77;89.36
13767;BME280;47980;48.794;9.176;2023-01-09T04:57:39;96816.38;;;7.60;90.10
13767;BME280;47980;48.794;9.176;2023-01-09T05:00:11;96808.19;;;7.65;89.34
13767;BME280;47980;48.794;9.176;2023-01-09T05:02:43;96806.59;;;7.76;89.90
13767;BME280;47980;48.794;9.176;2023-01-09T05:05:16;96816.66;;;7.70;88.86
13767;BME280;47980;48.794;9.176;2023-01-09T05:07:47;96809.03;;;7.53;89.43
13767;BME280;47980;48.794;9.176;2023-01-09T05:10:19;96810.44;;;7.63;88.73
13767;BME280;47980;48.794;9.176;2023-01-09T05:12:50;96810.72;;;7.74;88.74
13767;BME280;47980;48.794;9.176;2023-01-09T05:15:22;96821.88;;;7.55;88.88
13767;BME280;47980;48.794;9.176;2023-01-09T05:17:57;96842.00;;;7.59;89.57
13767;BME280;47980;48.794;9.176;2023-01-09T05:20:32;96856.25;;;7.70;90.12
13767;BME280;47980;48.794;9.176;2023-01-09T05:23:04;96848.69;;;7.57;87.78
13767;BME280;47980;48.794;9.176;2023-01-09T05:25:35;96849.63;;;7.48;87.03
13767;BME280;47980;48.794;9.176;2023-01-09T05:28:07;96868.03;;;7.61;87.83
13767;BME280;47980;48.794;9.176;2023-01-09T05:30:39;96869.28;;;7.51;89.83
13767;BME280;47980;48.794;9.176;2023-01-09T05:33:10;96872.34;;;7.53;87.51
13767;BME280;47980;48.794;9.176;2023-01-09T05:35:43;96891.38;;;7.46;89.04
13767;BME280;47980;48.794;9.176;2023-01-09T05:38:15;96887.31;;;7.37;86.94
13767;BME280;47980;48.794;9.176;2023-01-09T05:40:46;96903.84;;;7.34;89.60
13767;BME280;47980;48.794;9.176;2023-01-09T05:43:18;96913.22;;;7.19;88.68
13767;BME280;47980;48.794;9.176;2023-01-09T05:45:49;96907.50;;;7.05;89.78
13767;BME280;47980;48.794;9.176;2023-01-09T05:48:21;96914.97;;;7.03;89.97
13767;BME280;47980;48.794;9.176;2023-01-09T05:50:54;96923.84;;;6.86;90.02
13767;BME280;47980;48.794;9.176;2023-01-09T05:53:25;96927.59;;;6.85;91.30
13767;BME280;47980;48.794;9.176;2023-01-09T05:55:57;96939.13;;;6.92;90.91
13767;BME280;47980;48.794;9.176;2023-01-09T05:58:28;96951.53;;;6.80;89.97
13767;BME280;47980;48.794;9.176;2023-01-09T06:01:00;96939.13;;;6.80;89.80
13767;BME280;47980;48.794;9.176;2023-01-09T06:03:32;96941.09;;;6.83;89.36
13767;BME280;47980;48.794;9.176;2023-01-09T06:06:05;96950.53;;;6.84;88.92
13767;BME280;47980;48.794;9.176;2023-01-09T06:08:37;96941.06;;;6.71;88.64
13767;BME280;47980;48.794;9.176;2023-01-09T06:11:08;96946.34;;;6.71;88.57
13767;BME280;47980;48.794;9.176;2023-01-09T06:13:40;96938.09;;;6.60;89.59
13767;BME280;47980;48.794;9.176;2023-01-09T06:16:12;96924.03;;;6.56;89.95
13767;BME280;47980;48.794;9.176;2023-01-09T06:18:44;96930.75;;;6.54;90.49
13767;BME280;47980;48.794;9.176;2023-01-09T06:21:16;96932.81;;;6.48;90.70
13767;BME280;47980;48.794;9.176;2023-01-09T06:23:48;96941.59;;;6.40;92.43
13767;BME280;47980;48.794;9.176;2023-01-09T06:26:19;96936.63;;;6.38;93.71
13767;BME280;47980;48.794;9.176;2023-01-09T06:28:51;96941.78;;;6.35;94.24
13767;BME280;47980;48.794;9.176;2023-01-09T06:31:24;96946.13;;;6.18;95.07
13767;BME280;47980;48.794;9.176;2023-01-09T06:33:56;96960.25;;;6.14;96.34
13767;BME280;47980;48.794;9.176;2023-01-09T06:36:29;96963.03;;;6.17;96.06
13767;BME280;47980;48.794;9.176;2023-01-09T06:39:00;96974.06;;;6.11;98.93
13767;BME280;47980;48.794;9.176;2023-01-09T06:41:32;96975.47;;;6.08;98.27
13767;BME280;47980;48.794;9.176;2023-01-09T06:44:03;96971.56;;;5.93;98.80
13767;BME280;47980;48.794;9.176;2023-01-09T06:46:35;96974.47;;;6.00;99.21
13767;BME280;47980;48.794;9.176;2023-01-09T06:49:07;96970.59;;;5.98;99.48
13767;BME280;47980;48.794;9.176;2023-01-09T06:51:40;96979.63;;;6.09;98.74
13767;BME280;47980;48.794;9.176;2023-01-09T06:54:12;96987.66;;;6.13;96.88
13767;BME280;47980;48.794;9.176;2023-01-09T06:56:43;96983.53;;;6.24;94.91
13767;BME280;47980;48.794;9.176;2023-01-09T06:59:15;96989.69;;;6.28;92.36
13767;BME280;47980;48.794;9.176;2023-01-09T07:01:48;96984.53;;;6.32;92.56
13767;BME280;47980;48.794;9.176;2023-01-09T07:04:20;96978.50;;;6.31;92.06
13767;BME280;47980;48.794;9.176;2023-01-09T07:06:54;96978.63;;;6.35;91.96
13767;BME280;47980;48.794;9.176;2023-01-09T07:09:25;96985.47;;;6.36;93.28
13767;BME280;47980;48.794;9.176;2023-01-09T07:11:57;96987.63;;;6.34;94.86
13767;BME280;47980;48.794;9.176;2023-01-09T07:14:29;96979.41;;;6.35;95.07
13767;BME280;47980;48.794;9.176;2023-01-09T07:17:02;96976.13;;;6.38;93.81
13767;BME280;47980;48.794;9.176;2023-01-09T07:19:35;96985.66;;;6.31;94.67
13767;BME280;47980;48.794;9.176;2023-01-09T07:22:09;96980.47;;;6.22;94.60
13767;BME280;47980;48.794;9.176;2023-01-09T07:24:41;96979.28;;;6.32;95.29
13767;BME280;47980;48.794;9.176;2023-01-09T07:27:14;96992.09;;;6.21;95.84
13767;BME280;47980;48.794;9.176;2023-01-09T07:29:54;96988.13;;;6.15;95.25
13767;BME280;47980;48.794;9.176;2023-01-09T07:32:26;97002.97;;;6.32;92.62
13767;BME280;47980;48.794;9.176;2023-01-09T07:34:57;97001.19;;;6.44;92.13
13767;BME280;47980;48.794;9.176;2023-01-09T07:37:30;96997.38;;;6.54;91.73
13767;BME280;47980;48.794;9.176;2023-01-09T07:40:03;96999.25;;;6.54;91.34
13767;BME280;47980;48.794;9.176;2023-01-09T07:42:34;96999.44;;;6.48;91.34
13767;BME280;47980;48.794;9.176;2023-01-09T07:45:06;96993.84;;;6.50;90.62
13767;BME280;47980;48.794;9.176;2023-01-09T07:47:38;96992.78;;;6.63;92.33
13767;BME280;47980;48.794;9.176;2023-01-09T07:50:12;97000.25;;;6.61;90.63
13767;BME280;47980;48.794;9.176;2023-01-09T07:52:45;96999.69;;;6.56;91.78
13767;BME280;47980;48.794;9.176;2023-01-09T07:55:17;97004.28;;;6.46;91.13
13767;BME280;47980;48.794;9.176;2023-01-09T07:57:50;96999.44;;;6.48;91.87
13767;BME280;47980;48.794;9.176;2023-01-09T08:00:22;97012.91;;;6.80;88.53
13767;BME280;47980;48.794;9.176;2023-01-09T08:02:53;97014.78;;;6.80;89.80
13767;BME280;47980;48.794;9.176;2023-01-09T08:05:25;97023.03;;;6.90;90.07
13767;BME280;47980;48.794;9.176;2023-01-09T08:07:58;97022.53;;;7.09;88.11
13767;BME280;47980;48.794;9.176;2023-01-09T08:10:31;97028.78;;;7.17;87.36
13767;BME280;47980;48.794;9.176;2023-01-09T08:13:02;97027.25;;;7.28;86.39
13767;BME280;47980;48.794;9.176;2023-01-09T08:15:34;97025.50;;;7.57;84.97
13767;BME280;47980;48.794;9.176;2023-01-09T08:18:05;97032.97;;;7.67;86.21
13767;BME280;47980;48.794;9.176;2023-01-09T08:20:37;97035.28;;;7.81;85.38
13767;BME280;47980;48.794;9.176;2023-01-09T08:23:10;97035.78;;;7.99;84.14
13767;BME280;47980;48.794;9.176;2023-01-09T08:25:41;97032.81;;;8.00;82.99
13767;BME280;47980;48.794;9.176;2023-01-09T08:28:13;97031.69;;;8.01;81.82
13767;BME280;47980;48.794;9.176;2023-01-09T08:30:45;97023.38;;;7.87;81.59
13767;BME280;47980;48.794;9.176;2023-01-09T08:33:17;97035.78;;;7.99;80.72
13767;BME280;47980;48.794;9.176;2023-01-09T08:35:48;97035.78;;;7.99;80.75
13767;BME280;47980;48.794;9.176;2023-01-09T08:38:21;97031.69;;;8.01;80.72
13767;BME280;47980;48.794;9.176;2023-01-09T08:40:53;97034.28;;;7.73;81.44
13767;BME280;47980;48.794;9.176;2023-01-09T08:43:25;97036.69;;;7.78;80.14
13767;BME280;47980;48.794;9.176;2023-01-09T08:46:18;97035.03;;;7.86;80.06
13767;BME280;47980;48.794;9.176;2023-01-09T08:49:08;97027.44;;;7.96;79.78
13767;BME280;47980;48.794;9.176;2023-01-09T08:51:40;97032.38;;;7.98;80.31
13767;BME280;47980;48.794;9.176;2023-01-09T08:54:13;97031.69;;;8.01;79.44
13767;BME280;47980;48.794;9.176;2023-01-09T08:56:44;97036.78;;;8.06;78.82
13767;BME280;47980;48.794;9.176;2023-01-09T08:59:16;97039.50;;;8.10;77.30
13767;BME280;47980;48.794;9.176;2023-01-09T09:01:48;97040.47;;;8.17;77.73
13767;BME280;47980;48.794;9.176;2023-01-09T09:04:19;97045.31;;;8.15;77.69
13767;BME280;47980;48.794;9.176;2023-01-09T09:06:51;97039.75;;;8.33;76.92
13767;BME280;47980;48.794;9.176;2023-01-09T09:09:24;97043.16;;;8.33;75.42
13767;BME280;47980;48.794;9.176;2023-01-09T09:11:55;97025.25;;;8.27;76.43
13767;BME280;47980;48.794;9.176;2023-01-09T09:14:27;97042.63;;;8.40;75.35
13767;BME280;47980;48.794;9.176;2023-01-09T09:17:16;97030.63;;;8.42;76.76
13767;BME280;47980;48.794;9.176;2023-01-09T09:19:48;97038.16;;;8.56;75.20
13767;BME280;47980;48.794;9.176;2023-01-09T09:22:19;97032.94;;;8.44;74.68
13767;BME280;47980;48.794;9.176;2023-01-09T09:24:52;97038.16;;;8.56;75.30
13767;BME280;47980;48.794;9.176;2023-01-09T09:27:24;97036.91;;;8.66;74.92
13767;BME280;47980;48.794;9.176;2023-01-09T09:29:55;97031.25;;;8.67;75.37
13767;BME280;47980;48.794;9.176;2023-01-09T09:32:27;97023.34;;;8.67;74.69
13767;BME280;47980;48.794;9.176;2023-01-09T09:34:59;97031.63;;;8.66;75.25
13767;BME280;47980;48.794;9.176;2023-01-09T09:37:30;97048.03;;;8.87;73.74
13767;BME280;47980;48.794;9.176;2023-01-09T09:40:05;97054.75;;;8.85;74.37
13767;BME280;47980;48.794;9.176;2023-01-09T09:42:46;97047.72;;;9.05;74.59
13767;BME280;47980;48.794;9.176;2023-01-09T09:45:59;97052.56;;;9.19;72.84
13767;BME280;47980;48.794;9.176;2023-01-09T09:48:35;97061.88;;;9.28;73.93
13767;BME280;47980;48.794;9.176;2023-01-09T09:51:25;97068.72;;;9.29;74.31
13767;BME280;47980;48.794;9.176;2023-01-09T09:54:01;97075.28;;;9.35;73.60
13767;BME280;47980;48.794;9.176;2023-01-09T09:56:40;97065.91;;;9.38;71.99
13767;BME280;47980;48.794;9.176;2023-01-09T09:59:16;97058.22;;;9.17;71.89
13767;BME280;47980;48.794;9.176;2023-01-09T10:01:52;97055.31;;;9.06;71.88
13767;BME280;47980;48.794;9.176;2023-01-09T10:04:28;97058.97;;;9.18;74.21
13767;BME280;47980;48.794;9.176;2023-01-09T10:07:03;97045.34;;;9.31;72.40
13767;BME280;47980;48.794;9.176;2023-01-09T10:09:44;97047.97;;;9.47;72.95
13767;BME280;47980;48.794;9.176;2023-01-09T10:12:26;97047.16;;;9.78;71.69
13767;BME280;47980;48.794;9.176;2023-01-09T10:14:59;97031.63;;;9.77;70.38
13767;BME280;47980;48.794;9.176;2023-01-09T10:17:48;97038.94;;;9.83;69.65
13767;BME280;47980;48.794;9.176;2023-01-09T10:20:54;97027.13;;;9.97;70.98
13767;BME280;47980;48.794;9.176;2023-01-09T10:23:42;97031.75;;;10.19;68.13
13767;BME280;47980;48.794;9.176;2023-01-09T10:26:21;97017.81;;;10.03;70.68
13767;BME280;47980;48.794;9.176;2023-01-09T10:29:22;97018.41;;;9.96;70.33
13767;BME280;47980;48.794;9.176;2023-01-09T10:32:08;97028.44;;;9.87;69.58
13767;BME280;47980;48.794;9.176;2023-01-09T10:34:53;97026.59;;;9.72;70.96
13767;BME280;47980;48.794;9.176;2023-01-09T10:37:29;97027.03;;;9.74;71.60
13767;BME280;47980;48.794;9.176;2023-01-09T10:40:04;97014.19;;;9.76;71.56
13767;BME280;47980;48.794;9.176;2023-01-09T10:42:42;97023.28;;;9.59;72.38
13767;BME280;47980;48.794;9.176;2023-01-09T10:45:21;97010.63;;;9.68;71.47
13767;BME280;47980;48.794;9.176;2023-01-09T10:48:00;97011.22;;;9.61;70.27
13767;BME280;47980;48.794;9.176;2023-01-09T10:50:34;97015.94;;;9.87;70.43
13767;BME280;47980;48.794;9.176;2023-01-09T10:53:15;97010.06;;;9.43;70.33
13767;BME280;47980;48.794;9.176;2023-01-09T10:55:53;97005.38;;;9.52;70.38
13767;BME280;47980;48.794;9.176;2023-01-09T10:58:26;97010.50;;;9.45;72.62
13767;BME280;47980;48.794;9.176;2023-01-09T11:01:00;97005.38;;;9.52;71.88
13767;BME280;47980;48.794;9.176;2023-01-09T11:03:32;97013.41;;;9.24;72.51
13767;BME280;47980;48.794;9.176;2023-01-09T11:06:17;97004.84;;;9.47;71.74
13767;BME280;47980;48.794;9.176;2023-01-09T11:08:52;97011.22;;;9.77;71.76
13767;BME280;47980;48.794;9.176;2023-01-09T11:11:33;97008.81;;;9.72;70.27
13767;BME280;47980;48.794;9.176;2023-01-09T11:14:12;97008.88;;;9.92;71.12
13767;BME280;47980;48.794;9.176;2023-01-09T11:16:54;97012.69;;;9.94;71.49
13767;BME280;47980;48.794;9.176;2023-01-09T11:19:26;97007.75;;;9.93;69.02
13767;BME280;47980;48.794;9.176;2023-01-09T11:22:05;97000.78;;;9.84;70.65
13767;BME280;47980;48.794;9.176;2023-01-09T11:24:37;97000.13;;;9.91;69.99
13767;BME280;47980;48.794;9.176;2023-01-09T11:27:20;97001.53;;;10.04;70.29
13767;BME280;47980;48.794;9.176;2023-01-09T11:30:16;97003.50;;;9.88;69.76
13767;BME280;47980;48.794;9.176;2023-01-09T11:32:51;96998.66;;;10.29;67.50
13767;BME280;47980;48.794;9.176;2023-01-09T11:35:26;96992.06;;;10.23;68.26
13767;BME280;47980;48.794;9.176;2023-01-09T11:38:04;96995.09;;;10.41;67.25
13767;BME280;47980;48.794;9.176;2023-01-09T11:40:45;96995.94;;;10.25;67.35
13767;BME280;47980;48.794;9.176;2023-01-09T11:43:30;96990.47;;;10.38;67.31
13767;BME280;47980;48.794;9.176;2023-01-09T11:46:08;96996.28;;;10.43;66.20
13767;BME280;47980;48.794;9.176;2023-01-09T11:48:53;96982.41;;;10.73;64.82
13767;BME280;47980;48.794;9.176;2023-01-09T11:51:27;96989.88;;;10.67;66.36
13767;BME280;47980;48.794;9.176;2023-01-09T11:54:18;96976.44;;;10.56;65.97
13767;BME280;47980;48.794;9.176;2023-01-09T11:56:54;96981.44;;;10.39;66.82
13767;BME280;47980;48.794;9.176;2023-01-09T11:59:27;96984.41;;;10.79;65.66
13767;BME280;47980;48.794;9.176;2023-01-09T12:02:30;96980.47;;;10.70;64.56
13767;BME280;47980;48.794;9.176;2023-01-09T12:05:16;96969.16;;;10.73;64.71
13767;BME280;47980;48.794;9.176;2023-01-09T12:08:04;96982.53;;;10.80;66.04
13767;BME280;47980;48.794;9.176;2023-01-09T12:10:48;96966.50;;;10.73;65.29
13767;BME280;47980;48.794;9.176;2023-01-09T12:13:33;96975.63;;;10.98;63.40
13767;BME280;47980;48.794;9.176;2023-01-09T12:16:13;96972.88;;;10.91;63.76
13767;BME280;47980;48.794;9.176;2023-01-09T12:18:56;96980.56;;;11.00;63.91
13767;BME280;47980;48.794;9.176;2023-01-09T12:21:39;96977.69;;;10.85;62.88
13767;BME280;47980;48.794;9.176;2023-01-09T12:24:26;96984.19;;;10.65;63.61
13767;BME280;47980;48.794;9.176;2023-01-09T12:27:13;96980.81;;;10.68;65.17
13767;BME280;47980;48.794;9.176;2023-01-09T12:32:52;96991.03;;;10.47;67.08
13767;BME280;47980;48.794;9.176;2023-01-09T12:35:32;96988.72;;;10.45;66.81
13767;BME280;47980;48.794;9.176;2023-01-09T12:38:23;96982.13;;;10.35;66.84
13767;BME280;47980;48.794;9.176;2023-01-09T12:44:13;97002.38;;;10.08;69.77
13767;BME280;47980;48.794;9.176;2023-01-09T12:46:58;97005.78;;;9.89;73.00
13767;BME280;47980;48.794;9.176;2023-01-09T12:49:34;97017.34;;;9.81;74.00
13767;BME280;47980;48.794;9.176;2023-01-09T12:52:09;97010.94;;;10.02;73.51
13767;BME280;47980;48.794;9.176;2023-01-09T12:54:50;97016.72;;;10.43;72.46
13767;BME280;47980;48.794;9.176;2023-01-09T12:57:43;97021.06;;;10.31;73.17
13767;BME280;47980;48.794;9.176;2023-01-09T13:00:20;97007.09;;;10.34;70.86
13767;BME280;47980;48.794;9.176;2023-01-09T13:02:55;97010.84;;;10.33;73.10
13767;BME280;47980;48.794;9.176;2023-01-09T13:05:32;96996.94;;;10.59;71.94
13767;BME280;47980;48.794;9.176;2023-01-09T13:08:08;97016.19;;;10.76;70.73
13767;BME280;47980;48.794;9.176;2023-01-09T13:10:47;97012.59;;;10.88;70.01
13767;BME280;47980;48.794;9.176;2023-01-09T13:13:27;97009.19;;;10.87;66.65
13767;BME280;47980;48.794;9.176;2023-01-09T13:16:03;97015.81;;;10.77;68.53
13767;BME280;47980;48.794;9.176;2023-01-09T13:18:40;97016.56;;;10.55;68.69
13767;BME280;47980;48.794;9.176;2023-01-09T13:21:13;97013.50;;;10.33;68.55
13767;BME280;47980;48.794;9.176;2023-01-09T13:23:48;97013.88;;;9.97;70.63
13767;BME280;47980;48.794;9.176;2023-01-09T13:26:26;97013.03;;;9.93;71.74
13767;BME280;47980;48.794;9.176;2023-01-09T13:29:06;97016.03;;;9.91;72.39
13767;BME280;47980;48.794;9.176;2023-01-09T13:31:57;97029.31;;;9.75;72.41
13767;BME280;47980;48.794;9.176;2023-01-09T13:34:36;97032.72;;;9.76;73.45
13767;BME280;47980;48.794;9.176;2023-01-09T13:37:19;97029.13;;;9.84;72.65
13767;BME280;47980;48.794;9.176;2023-01-09T13:39:56;97025.47;;;10.08;73.31
13767;BME280;47980;48.794;9.176;2023-01-09T13:42:30;97028.34;;;10.19;73.22
13767;BME280;47980;48.794;9.176;2023-01-09T13:45:20;97030.38;;;9.90;71.95
13767;BME280;47980;48.794;9.176;2023-01-09T13:48:27;97024.97;;;10.02;70.72
13767;BME280;47980;48.794;9.176;2023-01-09T13:54:10;97039.59;;;9.96;72.02
13767;BME280;47980;48.794;9.176;2023-01-09T13:57:19;97042.00;;;9.50;73.66
13767;BME280;47980;48.794;9.176;2023-01-09T14:03:20;97059.34;;;9.48;75.19
13767;BME280;47980;48.794;9.176;2023-01-09T14:06:10;97061.47;;;9.42;74.24
13767;BME280;47980;48.794;9.176;2023-01-09T14:08:45;97066.31;;;9.40;74.68